createdAt,value
2018-03-19T00:01:11.618Z,47.20
2018-03-19T00:03:39.488Z,47.50
2018-03-19T00:06:08.243Z,47.80
2018-03-19T00:08:37.491Z,47.00
2018-03-19T00:11:09.325Z,46.60
2018-03-19T00:13:37.813Z,45.90
2018-03-19T00:16:06.245Z,46.40
2018-03-19T00:18:35.908Z,47.00
2018-03-19T00:21:04.627Z,47.00
2018-03-19T00:23:33.979Z,47.40
2018-03-19T00:26:02.752Z,47.60
2018-03-19T00:28:31.232Z,46.90
2018-03-19T00:30:59.457Z,46.90
2018-03-19T00:43:12.573Z,47.30
2018-03-19T00:45:41.536Z,46.90
2018-03-19T00:48:10.666Z,47.00
2018-03-19T00:50:40.733Z,47.20
2018-03-19T00:53:08.771Z,47.20
2018-03-19T00:55:36.944Z,47.30
2018-03-19T00:58:08.492Z,47.30
2018-03-19T01:00:38.160Z,47.60
2018-03-19T01:03:06.567Z,46.70
2018-03-19T01:05:37.110Z,46.20
2018-03-19T01:08:04.686Z,46.20
2018-03-19T01:10:33.085Z,47.00
2018-03-19T01:13:01.172Z,46.80
2018-03-19T01:15:31.028Z,47.00
2018-03-19T01:18:00.040Z,47.80
2018-03-19T01:20:28.516Z,47.30
2018-03-19T01:22:58.215Z,47.10
2018-03-19T01:25:27.156Z,47.30
2018-03-19T01:27:55.979Z,47.30
2018-03-19T01:30:26.977Z,46.60
2018-03-19T01:32:55.199Z,46.60
2018-03-19T01:35:23.983Z,46.60
2018-03-19T01:37:52.667Z,46.60
2018-03-19T01:40:22.462Z,47.30
2018-03-19T01:42:52.027Z,47.20
2018-03-19T01:45:20.101Z,46.00
2018-03-19T01:47:48.724Z,46.20
2018-03-19T01:50:17.404Z,46.80
2018-03-19T01:52:49.945Z,45.90
2018-03-19T01:55:18.909Z,45.90
2018-03-19T01:57:47.606Z,45.60
2018-03-19T02:00:15.778Z,45.50
2018-03-19T02:02:46.397Z,46.20
2018-03-19T02:05:14.861Z,46.50
2018-03-19T02:07:43.165Z,46.50
2018-03-19T02:10:11.496Z,46.70
2018-03-19T02:12:39.503Z,46.70
2018-03-19T02:15:08.510Z,47.10
2018-03-19T02:17:37.747Z,46.70
2018-03-19T02:20:07.300Z,46.40
2018-03-19T02:22:36.449Z,46.40
2018-03-19T02:25:05.050Z,46.40
2018-03-19T02:27:35.808Z,45.80
2018-03-19T02:30:04.397Z,46.20
2018-03-19T02:32:33.146Z,46.20
2018-03-19T02:35:01.638Z,46.40
2018-03-19T02:37:30.096Z,46.50
2018-03-19T02:39:58.817Z,46.30
2018-03-19T02:42:30.295Z,46.80
2018-03-19T02:45:00.669Z,46.90
2018-03-19T02:47:28.872Z,46.60
2018-03-19T02:49:58.408Z,47.00
2018-03-19T02:52:25.966Z,47.40
2018-03-19T02:54:54.710Z,47.70
2018-03-19T02:57:23.408Z,47.70
2018-03-19T02:59:52.637Z,47.40
2018-03-19T03:02:22.255Z,47.40
2018-03-19T03:04:50.967Z,47.70
2018-03-19T03:07:22.223Z,48.10
2018-03-19T03:09:50.753Z,48.50
2018-03-19T03:12:19.963Z,48.20
2018-03-19T03:14:48.378Z,48.30
2018-03-19T03:17:15.926Z,48.00
2018-03-19T03:19:45.144Z,47.90
2018-03-19T03:22:14.139Z,47.50
2018-03-19T03:24:42.280Z,47.70
2018-03-19T03:27:12.513Z,48.30
2018-03-19T03:29:42.930Z,48.00
2018-03-19T03:32:12.385Z,47.00
2018-03-19T03:34:41.003Z,47.50
2018-03-19T03:37:09.003Z,47.50
2018-03-19T03:39:37.676Z,47.30
2018-03-19T03:42:06.083Z,47.50
2018-03-19T03:44:35.088Z,47.00
2018-03-19T03:47:03.228Z,47.60
2018-03-19T03:49:32.022Z,47.70
2018-03-19T03:52:03.856Z,47.60
2018-03-19T03:54:33.075Z,47.10
2018-03-19T03:57:02.747Z,47.10
2018-03-19T03:59:32.450Z,47.10
2018-03-19T04:02:01.084Z,47.40
2018-03-19T04:04:29.136Z,47.10
2018-03-19T04:06:57.621Z,48.00
2018-03-19T04:09:25.890Z,48.30
2018-03-19T04:11:54.842Z,48.30
2018-03-19T04:14:23.221Z,48.40
2018-03-19T04:16:53.432Z,48.40
2018-03-19T04:19:23.563Z,48.60
2018-03-19T04:21:52.426Z,48.60
2018-03-19T04:24:21.585Z,48.60
2018-03-19T04:26:51.804Z,48.70
2018-03-19T04:29:19.980Z,48.70
2018-03-19T04:31:48.109Z,48.40
2018-03-19T04:34:16.870Z,48.00
2018-03-19T04:36:45.802Z,48.20
2018-03-19T04:39:14.303Z,47.60
2018-03-19T04:41:41.922Z,48.30
2018-03-19T04:44:10.010Z,48.00
2018-03-19T04:46:39.757Z,48.00
2018-03-19T04:49:09.286Z,48.70
2018-03-19T04:51:37.775Z,48.90
2018-03-19T04:54:05.851Z,48.80
2018-03-19T04:56:34.266Z,49.50
2018-03-19T04:59:02.747Z,48.80
2018-03-19T05:01:31.943Z,48.70
2018-03-19T05:04:02.371Z,48.60
2018-03-19T05:06:31.561Z,48.60
2018-03-19T05:09:01.313Z,48.70
2018-03-19T05:11:30.353Z,49.50
2018-03-19T05:13:58.711Z,49.60
2018-03-19T05:16:28.601Z,50.00
2018-03-19T05:18:58.425Z,49.60
2018-03-19T05:21:27.355Z,49.60
2018-03-19T05:23:54.966Z,49.50
2018-03-19T05:26:25.526Z,49.70
2018-03-19T05:28:54.880Z,50.40
2018-03-19T05:31:23.824Z,49.90
2018-03-19T05:33:53.529Z,49.20
2018-03-19T05:36:21.181Z,49.50
2018-03-19T05:38:51.029Z,49.40
2018-03-19T05:41:21.178Z,49.50
2018-03-19T05:43:52.811Z,48.50
2018-03-19T05:46:20.839Z,48.50
2018-03-19T05:48:51.284Z,49.00
2018-03-19T05:51:18.939Z,49.00
2018-03-19T05:53:47.367Z,49.30
2018-03-19T05:56:17.383Z,48.70
2018-03-19T05:58:48.373Z,48.60
2018-03-19T06:01:18.479Z,48.40
2018-03-19T06:03:49.646Z,47.80
2018-03-19T06:06:17.873Z,47.80
2018-03-19T06:08:47.079Z,47.50
2018-03-19T06:11:16.193Z,47.50
2018-03-19T06:13:46.301Z,47.30
2018-03-19T06:16:15.875Z,48.50
2018-03-19T06:18:44.497Z,48.80
2018-03-19T06:21:13.671Z,47.70
2018-03-19T06:23:41.345Z,48.10
2018-03-19T06:26:10.127Z,48.60
2018-03-19T06:28:40.796Z,49.00
2018-03-19T06:31:12.112Z,49.30
2018-03-19T06:33:45.663Z,49.20
2018-03-19T06:36:13.904Z,49.10
2018-03-19T06:38:43.196Z,48.50
2018-03-19T06:41:12.380Z,48.30
2018-03-19T06:43:41.773Z,48.20
2018-03-19T06:46:10.854Z,48.00
2018-03-19T06:48:39.211Z,48.10
2018-03-19T06:51:08.174Z,47.90
2018-03-19T06:53:38.166Z,49.00
2018-03-19T06:56:06.949Z,49.00
2018-03-19T06:58:35.987Z,49.40
2018-03-19T07:01:07.062Z,49.30
2018-03-19T07:03:36.290Z,49.30
2018-03-19T07:06:04.801Z,49.60
2018-03-19T07:08:33.801Z,49.30
2018-03-19T07:11:05.219Z,48.80
2018-03-19T07:13:33.256Z,48.00
2018-03-19T07:16:01.962Z,47.90
2018-03-19T07:18:31.006Z,48.00
2018-03-19T07:21:02.219Z,47.60
2018-03-19T07:23:30.941Z,47.60
2018-03-19T07:25:59.944Z,47.60
2018-03-19T07:28:29.162Z,46.70
2018-03-19T07:30:57.687Z,47.20
2018-03-19T07:33:26.450Z,47.80
2018-03-19T07:35:55.311Z,48.10
2018-03-19T07:38:23.523Z,47.90
2018-03-19T07:40:53.046Z,47.40
2018-03-19T07:43:20.836Z,48.20
2018-03-19T07:45:49.742Z,48.20
2018-03-19T07:48:17.919Z,48.40
2018-03-19T07:50:47.813Z,48.40
2018-03-19T07:53:18.500Z,48.20
2018-03-19T07:55:48.894Z,48.20
2018-03-19T07:58:18.172Z,48.70
2018-03-19T08:00:47.969Z,48.40
2018-03-19T08:03:18.432Z,47.60
2018-03-19T08:05:47.939Z,47.60
2018-03-19T08:08:18.285Z,48.50
2018-03-19T08:10:46.434Z,48.60
2018-03-19T08:13:16.038Z,48.20
2018-03-19T08:15:44.986Z,47.50
2018-03-19T08:18:14.229Z,47.90
2018-03-19T08:20:42.415Z,47.90
2018-03-19T08:23:11.805Z,47.80
2018-03-19T08:25:41.457Z,47.50
2018-03-19T08:28:10.885Z,46.70
2018-03-19T08:30:41.461Z,46.50
2018-03-19T08:33:10.841Z,46.50
2018-03-19T08:35:41.969Z,45.90
2018-03-19T08:38:14.023Z,45.90
2018-03-19T08:40:43.045Z,45.60
2018-03-19T08:52:57.363Z,46.00
2018-03-19T08:55:27.820Z,46.30
2018-03-19T08:57:55.948Z,46.30
2018-03-19T09:00:29.579Z,46.50
2018-03-19T09:02:58.697Z,47.00
2018-03-19T09:05:27.883Z,46.70
2018-03-19T09:07:56.655Z,46.20
2018-03-19T09:10:26.575Z,45.90
2018-03-19T09:12:55.598Z,46.40
2018-03-19T09:15:23.241Z,46.60
2018-03-19T09:17:50.902Z,46.60
2018-03-19T09:20:18.525Z,46.30
2018-03-19T09:22:46.843Z,46.20
2018-03-19T09:25:14.770Z,46.20
2018-03-19T09:27:42.319Z,45.90
2018-03-19T09:30:09.959Z,45.60
2018-03-19T09:32:38.314Z,45.40
2018-03-19T09:35:07.238Z,45.60
2018-03-19T09:37:34.885Z,45.40
2018-03-19T09:40:03.191Z,45.60
2018-03-19T09:42:31.673Z,45.30
2018-03-19T09:45:00.243Z,45.00
2018-03-19T09:47:28.431Z,44.40
2018-03-19T09:49:56.935Z,44.30
2018-03-19T09:52:26.609Z,44.90
2018-03-19T09:54:54.240Z,44.80
2018-03-19T09:57:21.823Z,44.20
2018-03-19T09:59:50.273Z,44.40
2018-03-19T10:02:17.923Z,44.70
2018-03-19T10:04:46.506Z,44.80
2018-03-19T10:07:14.843Z,44.20
2018-03-19T10:09:43.224Z,43.90
2018-03-19T10:12:11.547Z,43.60
2018-03-19T10:14:39.938Z,43.70
2018-03-19T10:17:08.331Z,43.70
2018-03-19T10:19:37.445Z,44.00
2018-03-19T10:22:05.618Z,42.90
2018-03-19T10:24:33.636Z,43.30
2018-03-19T10:27:01.660Z,43.30
2018-03-19T10:29:29.254Z,43.50
2018-03-19T10:31:57.571Z,43.30
2018-03-19T10:34:25.759Z,43.30
2018-03-19T10:36:53.318Z,43.40
2018-03-19T10:39:21.812Z,44.00
2018-03-19T10:41:49.398Z,43.90
2018-03-19T10:44:16.950Z,44.30
2018-03-19T10:46:45.345Z,45.00
2018-03-19T10:49:12.927Z,44.40
2018-03-19T10:51:41.835Z,43.90
2018-03-19T10:54:09.580Z,43.80
2018-03-19T10:56:38.371Z,44.70
2018-03-19T10:59:06.003Z,44.70
2018-03-19T11:01:39.225Z,44.90
2018-03-19T11:04:14.441Z,44.40
2018-03-19T11:06:48.652Z,45.50
2018-03-19T11:09:21.957Z,45.50
2018-03-19T11:11:51.850Z,45.20
2018-03-19T11:14:19.562Z,44.80
2018-03-19T11:16:48.017Z,46.00
2018-03-19T11:19:16.501Z,45.70
2018-03-19T11:21:46.128Z,45.00
2018-03-19T11:24:13.740Z,45.00
2018-03-19T11:26:41.350Z,44.80
2018-03-19T11:29:09.739Z,44.50
2018-03-19T11:31:37.511Z,44.40
2018-03-19T11:34:05.637Z,44.60
2018-03-19T11:36:33.272Z,44.90
2018-03-19T11:39:01.025Z,44.70
2018-03-19T11:41:28.583Z,44.60
2018-03-19T11:43:57.145Z,44.70
2018-03-19T11:46:26.582Z,45.50
2018-03-19T11:48:54.379Z,45.20
2018-03-19T11:51:22.799Z,46.10
2018-03-19T11:53:50.721Z,46.10
2018-03-19T11:56:18.326Z,46.00
2018-03-19T11:58:45.945Z,45.80
2018-03-19T12:01:13.505Z,45.70
2018-03-19T12:03:42.039Z,45.80
2018-03-19T12:06:09.633Z,45.30
2018-03-19T12:08:37.932Z,44.90
2018-03-19T12:11:07.113Z,43.80
2018-03-19T12:13:34.668Z,44.00
2018-03-19T12:16:02.256Z,44.40
2018-03-19T12:18:31.550Z,44.80
2018-03-19T12:20:59.096Z,44.80
2018-03-19T12:23:26.661Z,44.40
2018-03-19T12:25:54.443Z,44.90
2018-03-19T12:28:22.030Z,44.70
2018-03-19T12:30:49.567Z,44.30
2018-03-19T12:33:17.960Z,45.30
2018-03-19T12:35:45.710Z,45.30
2018-03-19T12:38:13.711Z,45.20
2018-03-19T12:40:41.337Z,45.60
2018-03-19T12:43:09.469Z,45.90
2018-03-19T12:45:37.718Z,45.30
2018-03-19T12:48:06.072Z,45.40
2018-03-19T12:50:33.669Z,45.60
2018-03-19T12:53:01.309Z,46.10
2018-03-19T12:55:28.894Z,46.30
2018-03-19T12:57:56.609Z,46.40
2018-03-19T13:00:25.593Z,46.40
2018-03-19T13:02:54.348Z,46.80
2018-03-19T13:05:22.069Z,46.80
2018-03-19T13:07:50.403Z,46.90
2018-03-19T13:10:18.029Z,46.60
2018-03-19T13:12:45.635Z,45.70
2018-03-19T13:15:13.281Z,45.90
2018-03-19T13:17:41.788Z,46.10
2018-03-19T13:20:10.323Z,46.70
2018-03-19T13:22:37.945Z,46.50
2018-03-19T13:25:06.282Z,45.70
2018-03-19T13:27:33.877Z,45.70
2018-03-19T13:30:01.507Z,46.30
2018-03-19T13:32:29.116Z,46.10
2018-03-19T13:34:57.750Z,45.90
2018-03-19T13:37:25.924Z,46.30
2018-03-19T13:39:53.479Z,46.40
2018-03-19T13:42:21.658Z,46.50
2018-03-19T13:44:49.227Z,46.10
2018-03-19T13:47:19.737Z,46.30
2018-03-19T13:49:47.288Z,46.00
2018-03-19T13:52:15.399Z,45.70
2018-03-19T13:54:43.015Z,46.20
2018-03-19T13:57:11.214Z,46.20
2018-03-19T13:59:38.754Z,46.00
2018-03-19T14:02:06.652Z,45.90
2018-03-19T14:04:36.143Z,46.00
2018-03-19T14:07:03.708Z,46.00
2018-03-19T14:09:31.256Z,45.80
2018-03-19T14:12:00.566Z,46.00
2018-03-19T14:14:28.756Z,46.20
2018-03-19T14:16:56.326Z,46.50
2018-03-19T14:19:25.107Z,46.80
2018-03-19T14:21:53.266Z,47.00
2018-03-19T14:24:20.833Z,46.60
2018-03-19T14:26:49.070Z,46.50
2018-03-19T14:29:16.669Z,45.80
2018-03-19T14:31:44.276Z,45.70
2018-03-19T14:34:12.396Z,46.30
2018-03-19T14:36:39.973Z,46.80
2018-03-19T14:39:07.637Z,46.80
2018-03-19T14:41:36.871Z,46.30
2018-03-19T14:44:04.792Z,45.70
2018-03-19T14:46:32.388Z,46.00
2018-03-19T14:48:59.989Z,45.60
2018-03-19T14:51:29.095Z,45.80
2018-03-19T14:53:56.682Z,46.00
2018-03-19T14:56:24.323Z,46.20
2018-03-19T14:58:51.957Z,46.10
2018-03-19T15:01:20.307Z,46.10
2018-03-19T15:03:48.646Z,46.00
2018-03-19T15:06:16.247Z,45.90
2018-03-19T15:08:44.598Z,46.60
2018-03-19T15:11:13.652Z,46.20
2018-03-19T15:13:41.872Z,45.70
2018-03-19T15:16:09.432Z,46.60
2018-03-19T15:18:37.725Z,45.80
2018-03-19T15:21:06.163Z,46.10
2018-03-19T15:23:34.837Z,46.50
2018-03-19T15:26:02.406Z,46.80
2018-03-19T15:28:30.854Z,46.70
2018-03-19T15:30:59.170Z,46.20
2018-03-19T15:33:27.302Z,46.20
2018-03-19T15:35:55.829Z,45.60
2018-03-19T15:38:23.381Z,46.20
2018-03-19T15:40:51.004Z,45.90
2018-03-19T15:43:19.329Z,46.60
2018-03-19T15:45:47.452Z,46.60
2018-03-19T15:48:17.190Z,46.30
2018-03-19T15:50:45.232Z,46.30
2018-03-19T15:53:13.727Z,46.80
2018-03-19T15:55:41.958Z,47.00
2018-03-19T15:58:09.571Z,47.70
2018-03-19T16:00:41.074Z,47.70
2018-03-19T16:03:08.665Z,47.90
2018-03-19T16:05:37.018Z,48.80
2018-03-19T16:08:04.794Z,48.80
2018-03-19T16:10:32.510Z,49.00
2018-03-19T16:13:00.060Z,48.80
2018-03-19T16:15:27.815Z,48.20
2018-03-19T16:17:55.848Z,48.40
2018-03-19T16:20:24.184Z,49.10
2018-03-19T16:22:53.061Z,49.00
2018-03-19T16:25:21.128Z,49.50
2018-03-19T16:27:48.715Z,50.00
2018-03-19T16:30:16.319Z,49.30
2018-03-19T16:32:44.630Z,49.50
2018-03-19T16:35:12.228Z,49.50
2018-03-19T16:37:40.956Z,50.00
2018-03-19T16:40:08.534Z,49.80
2018-03-19T16:42:36.983Z,50.50
2018-03-19T16:45:05.314Z,50.70
2018-03-19T16:47:32.874Z,50.90
2018-03-19T16:50:00.462Z,51.00
2018-03-19T16:52:30.552Z,50.90
2018-03-19T16:54:58.412Z,51.00
2018-03-19T16:57:26.906Z,50.80
2018-03-19T16:59:55.514Z,50.90
2018-03-19T17:02:23.100Z,51.50
2018-03-19T17:04:50.710Z,52.10
2018-03-19T17:07:18.923Z,51.90
2018-03-19T17:09:46.563Z,51.90
2018-03-19T17:12:15.503Z,51.40
2018-03-19T17:14:44.695Z,51.00
2018-03-19T17:17:12.331Z,50.90
2018-03-19T17:19:40.067Z,51.20
2018-03-19T17:22:08.200Z,51.30
2018-03-19T17:24:36.985Z,51.20
2018-03-19T17:27:04.546Z,51.40
2018-03-19T17:29:32.299Z,51.50
2018-03-19T17:32:00.117Z,52.00
2018-03-19T17:34:27.691Z,51.50
2018-03-19T17:36:55.764Z,52.00
2018-03-19T17:39:23.389Z,52.50
2018-03-19T17:41:50.995Z,52.20
2018-03-19T17:44:19.315Z,51.70
2018-03-19T17:46:47.029Z,51.70
2018-03-19T17:49:14.707Z,51.70
2018-03-19T17:51:42.254Z,51.60
2018-03-19T17:54:09.954Z,51.60
2018-03-19T17:56:37.540Z,51.50
2018-03-19T17:59:05.608Z,51.60
2018-03-19T18:01:33.375Z,51.20
2018-03-19T18:04:00.924Z,51.20
2018-03-19T18:06:28.998Z,50.50
2018-03-19T18:08:57.221Z,50.90
2018-03-19T18:11:24.804Z,50.80
2018-03-19T18:13:53.196Z,51.90
2018-03-19T18:16:20.807Z,51.60
2018-03-19T18:18:48.372Z,52.00
2018-03-19T18:21:16.753Z,52.20
2018-03-19T18:23:45.974Z,52.00
2018-03-19T18:26:13.543Z,51.90
2018-03-19T18:28:41.157Z,52.00
2018-03-19T18:31:10.091Z,52.00
2018-03-19T18:33:38.128Z,52.60
2018-03-19T18:36:07.046Z,52.30
2018-03-19T18:38:36.291Z,52.60
2018-03-19T18:41:03.924Z,52.80
2018-03-19T18:43:31.484Z,52.70
2018-03-19T18:46:00.640Z,53.30
2018-03-19T18:48:29.306Z,53.60
2018-03-19T18:50:56.870Z,54.00
2018-03-19T18:53:26.673Z,53.90
2018-03-19T18:55:57.220Z,54.00
2018-03-19T18:58:25.914Z,54.50
2018-03-19T19:00:53.484Z,54.30
2018-03-19T19:03:21.707Z,54.40
2018-03-19T19:05:49.278Z,54.40
2018-03-19T19:08:16.821Z,55.00
2018-03-19T19:10:45.552Z,54.60
2018-03-19T19:13:13.884Z,54.90
2018-03-19T19:15:42.329Z,55.30
2018-03-19T19:18:09.952Z,54.60
2018-03-19T19:20:37.492Z,54.20
2018-03-19T19:23:05.681Z,54.30
2018-03-19T19:25:33.616Z,53.70
2018-03-19T19:28:01.216Z,54.10
2018-03-19T19:30:31.368Z,54.10
2018-03-19T19:32:59.873Z,54.40
2018-03-19T19:35:29.388Z,54.30
2018-03-19T19:38:00.765Z,54.10
2018-03-19T19:40:31.136Z,54.30
2018-03-19T19:42:59.693Z,54.80
2018-03-19T19:45:28.952Z,54.70
2018-03-19T19:47:58.801Z,55.00
2018-03-19T19:50:26.358Z,55.00
2018-03-19T19:52:54.416Z,55.10
2018-03-19T19:55:24.254Z,55.10
2018-03-19T19:57:51.946Z,54.60
2018-03-19T20:00:20.667Z,54.80
2018-03-19T20:02:49.840Z,55.00
2018-03-19T20:05:18.908Z,56.20
2018-03-19T20:07:48.023Z,55.60
2018-03-19T20:10:16.491Z,56.10
2018-03-19T20:12:46.169Z,56.20
2018-03-19T20:15:15.445Z,56.20
2018-03-19T20:17:45.319Z,57.00
2018-03-19T20:20:16.427Z,57.00
2018-03-19T20:22:44.875Z,57.40
2018-03-19T20:25:15.713Z,58.10
2018-03-19T20:27:45.139Z,58.10
2018-03-19T20:30:13.418Z,58.00
2018-03-19T20:32:41.817Z,58.20
2018-03-19T20:35:10.861Z,58.10
2018-03-19T20:37:39.490Z,58.30
2018-03-19T20:40:08.579Z,57.60
2018-03-19T20:42:36.486Z,58.00
2018-03-19T20:45:07.144Z,58.10
2018-03-19T20:47:35.771Z,58.30
2018-03-19T20:50:05.059Z,58.50
2018-03-19T20:52:34.697Z,59.00
2018-03-19T20:55:05.292Z,59.30
2018-03-19T20:57:34.845Z,59.20
2018-03-19T21:00:04.429Z,59.50
2018-03-19T21:02:32.278Z,59.30
2018-03-19T21:04:59.869Z,59.70
2018-03-19T21:07:27.497Z,59.80
2018-03-19T21:09:56.734Z,59.90
2018-03-19T21:12:24.563Z,60.00
2018-03-19T21:14:53.548Z,60.60
2018-03-19T21:17:21.533Z,60.60
2018-03-19T21:19:49.809Z,60.40
2018-03-19T21:22:20.657Z,60.50
2018-03-19T21:24:49.250Z,60.40
2018-03-19T21:27:18.201Z,60.80
2018-03-19T21:29:47.234Z,61.00
2018-03-19T21:32:17.795Z,60.90
2018-03-19T21:34:46.205Z,60.70
2018-03-19T21:37:15.170Z,60.70
2018-03-19T21:39:44.392Z,60.30
2018-03-19T21:42:12.763Z,59.80
2018-03-19T21:44:43.332Z,59.40
2018-03-19T21:47:11.680Z,58.90
2018-03-19T21:49:42.277Z,58.80
2018-03-19T21:52:11.868Z,58.80
2018-03-19T21:54:39.454Z,58.50
2018-03-19T21:57:08.418Z,58.50
2018-03-19T21:59:38.426Z,58.50
2018-03-19T22:02:06.997Z,58.60
2018-03-19T22:04:36.968Z,58.90
2018-03-19T22:07:06.121Z,59.20
2018-03-19T22:09:35.606Z,59.30
2018-03-19T22:12:05.368Z,59.90
2018-03-19T22:14:36.110Z,59.90
2018-03-19T22:17:04.589Z,59.20
2018-03-19T22:19:33.942Z,59.50
2018-03-19T22:22:02.431Z,58.80
2018-03-19T22:24:30.459Z,59.70
2018-03-19T22:26:58.031Z,59.60
2018-03-19T22:29:27.998Z,59.40
2018-03-19T22:31:57.930Z,58.90
2018-03-19T22:34:27.003Z,58.60
2018-03-19T22:36:57.172Z,58.90
2018-03-19T22:39:26.433Z,59.20
2018-03-19T22:41:56.274Z,59.00
2018-03-19T22:46:58.185Z,58.00
2018-03-19T22:49:26.649Z,58.30
2018-03-19T22:51:55.275Z,58.40
2018-03-19T22:54:24.167Z,57.70
2018-03-19T22:56:53.255Z,57.20
2018-03-19T22:59:23.374Z,56.70
2018-03-19T23:01:51.717Z,56.90
2018-03-19T23:04:32.515Z,57.40
2018-03-19T23:07:00.112Z,56.70
2018-03-19T23:09:27.676Z,57.10
2018-03-19T23:11:56.683Z,57.20
2018-03-19T23:14:24.354Z,56.70
2018-03-19T23:16:51.953Z,56.70
2018-03-19T23:19:20.159Z,56.50
2018-03-19T23:21:47.743Z,56.80
2018-03-19T23:24:15.311Z,57.00
2018-03-19T23:26:42.946Z,56.80
2018-03-19T23:29:11.824Z,56.50
2018-03-19T23:31:39.458Z,56.70
2018-03-19T23:34:07.149Z,56.40
2018-03-19T23:36:34.810Z,56.20
2018-03-19T23:39:02.415Z,56.30
2018-03-19T23:41:30.033Z,56.70
2018-03-19T23:43:57.591Z,56.40
2018-03-19T23:46:26.715Z,56.10
2018-03-19T23:48:55.829Z,56.30
2018-03-19T23:51:23.409Z,55.90
2018-03-19T23:53:50.982Z,55.80
2018-03-19T23:56:18.580Z,55.90
2018-03-19T23:58:47.290Z,55.90
